Shinsei Maru — JD2188 — position and weather

sailwx.info

Track history (hours):
 
Tides and Currents Weather Stations Pressure Air Temp Water Temp Dewpoint Dewpoint Depression Visibility Wind Speed Wind Dir Waves Ship Positions

Shinsei Maru

Last reported at 2015-Mar-01 06:07 UTC. Time now 2015-Mar-04 22:49 UTC.
Position N 33°58' E 135°01'.

Length 104 m; draft 6.5 m.

Type: Tanker. MMSI: 431301775.

Date/timePositionNaut miles runAvg speedWind from/ knotsBaromVisibWave heightAir tempDewpointWater temp
2015-Mar-01 06:07N 33°58' E 135°01'814.9
2015-Mar-01 05:33N 34°06' E 134°60'1514.8
2015-Mar-01 04:33N 34°21' E 134°59'1414.5
2015-Mar-01 03:33N 34°35' E 135°03'  
2015-Feb-22 08:33N 35°08' E 139°45'1312.6
2015-Feb-22 07:33N 35°20' E 139°42'1312.5
2015-Feb-22 06:33N 35°30' E 139°53'4 0.6
2015-Feb-21 23:32N 35°29' E 139°58'2 1.6
2015-Feb-21 22:29N 35°29' E 139°55'0 0.0
2015-Feb-21 21:29N 35°29' E 139°55'0 0.0
2015-Feb-21 18:17N 35°29' E 139°55'0 0.0
2015-Feb-21 17:20N 35°29' E 139°55'0 0.0
2015-Feb-21 16:29N 35°29' E 139°55'2 0.5
2015-Feb-21 11:29N 35°31' E 139°58'1212.9
2015-Feb-21 10:33N 35°23' E 139°46'1312.6
2015-Feb-21 09:30N 35°10' E 139°46'  
Track history (hours):
 
Tides and Currents Weather Stations Pressure Air Temp Water Temp Dewpoint Dewpoint Depression Visibility Wind Speed Wind Dir Waves Ship Positions

Shinsei Maru

Last reported at 2015-Mar-01 06:07 UTC. Time now 2015-Mar-04 22:49 UTC.
Position N 33°58' E 135°01'.

Length 104 m; draft 6.5 m.

Type: Tanker. MMSI: 431301775.

Date/timePositionNaut miles runAvg speedWind from/ knotsBaromVisibWave heightAir tempDewpointWater temp
2015-Mar-01 06:07N 33°58' E 135°01'814.9
2015-Mar-01 05:33N 34°06' E 134°60'1514.8
2015-Mar-01 04:33N 34°21' E 134°59'1414.5
2015-Mar-01 03:33N 34°35' E 135°03'  
2015-Feb-22 08:33N 35°08' E 139°45'1312.6
2015-Feb-22 07:33N 35°20' E 139°42'1312.5
2015-Feb-22 06:33N 35°30' E 139°53'4 0.6
2015-Feb-21 23:32N 35°29' E 139°58'2 1.6
2015-Feb-21 22:29N 35°29' E 139°55'0 0.0
2015-Feb-21 21:29N 35°29' E 139°55'0 0.0
2015-Feb-21 18:17N 35°29' E 139°55'0 0.0
2015-Feb-21 17:20N 35°29' E 139°55'0 0.0
2015-Feb-21 16:29N 35°29' E 139°55'2 0.5
2015-Feb-21 11:29N 35°31' E 139°58'1212.9
2015-Feb-21 10:33N 35°23' E 139°46'1312.6
2015-Feb-21 09:30N 35°10' E 139°46'  

Dump ship's entire track history